PWSweather.com
Personal Weather Stations
Station Observations

YeovilGB

Lat: 50.949, Lon: -2.627

Elevation: 70

Station Type: Vantage Pro

http://www.yeovil-weather.me.uk/

High Low Average
Temperature 45.7°F7.6°C 29.4°F-1.4°C 38.7°F3.7°C
Dew Point 44.6°F7.0°C 27.9°F-2.3°C 37.2°F2.9°C
Winds 3.5 mph 5.6 kmh Calm Calm Calm SWCalm SW
Wind Gusts 6.9 mph11.1 kmh -- 1.0 mph1.6 kmh
Humidity 97% 90% 94%
Pressure 29.94 in1013.9 mb 29.54 in1000.3 mb -
Precipitation 0.26 in6.6 mm - -
Hour Temp Dew Point Humidity Winds Wind Gusts Pressure Precip Precip Rate Daily Precip Total
12:00 AM 34.1°F1.2°C 31.5°F-0.3°C 90% Calm Calm -- 29.93 in1013.5 mb - 0.00 in0.0 mm 0.00 in0.0 mm
12:10 AM 34.0°F1.1°C 31.4°F-0.3°C 90% Calm Calm -- 29.93 in1013.5 mb - 0.00 in0.0 mm 0.00 in0.0 mm
12:20 AM 33.9°F1.1°C 31.2°F-0.4°C 90% Calm Calm -- 29.93 in1013.5 mb - 0.00 in0.0 mm 0.00 in0.0 mm
12:30 AM 33.5°F0.8°C 30.9°F-0.6°C 90% Calm Calm -- 29.93 in1013.5 mb - 0.00 in0.0 mm 0.00 in0.0 mm
12:40 AM 33.2°F0.7°C 30.6°F-0.8°C 90% Calm Calm -- 29.93 in1013.5 mb - 0.00 in0.0 mm 0.00 in0.0 mm
12:50 AM 32.8°F0.4°C 30.2°F-1.0°C 90% Calm Calm -- 29.93 in1013.5 mb - 0.00 in0.0 mm 0.00 in0.0 mm
01:00 AM 32.8°F0.4°C 30.5°F-0.8°C 91% Calm Calm -- 29.94 in1013.9 mb - 0.00 in0.0 mm 0.00 in0.0 mm
01:10 AM 32.8°F0.4°C 30.5°F-0.8°C 91% Calm Calm -- 29.93 in1013.5 mb - 0.00 in0.0 mm 0.00 in0.0 mm
01:20 AM 32.5°F0.3°C 30.2°F-1.0°C 91% Calm Calm -- 29.93 in1013.5 mb - 0.00 in0.0 mm 0.00 in0.0 mm
01:30 AM 32.3°F0.2°C 30.0°F-1.1°C 91% Calm Calm -- 29.93 in1013.5 mb - 0.00 in0.0 mm 0.00 in0.0 mm
01:40 AM 32.1°F0.1°C 29.8°F-1.2°C 91% Calm Calm -- 29.92 in1013.2 mb - 0.00 in0.0 mm 0.00 in0.0 mm
01:50 AM 31.8°F-0.1°C 29.5°F-1.4°C 91% Calm Calm -- 29.92 in1013.2 mb - 0.00 in0.0 mm 0.00 in0.0 mm
02:00 AM 31.6°F-0.2°C 29.3°F-1.5°C 91% Calm Calm -- 29.92 in1013.2 mb - 0.00 in0.0 mm 0.00 in0.0 mm
02:10 AM 31.4°F-0.3°C 29.1°F-1.6°C 91% Calm Calm -- 29.91 in1012.9 mb - 0.00 in0.0 mm 0.00 in0.0 mm
02:20 AM 31.2°F-0.4°C 29.2°F-1.6°C 92% Calm Calm -- 29.91 in1012.9 mb - 0.00 in0.0 mm 0.00 in0.0 mm
02:30 AM 31.2°F-0.4°C 29.1°F-1.6°C 92% Calm Calm -- 29.90 in1012.5 mb - 0.00 in0.0 mm 0.00 in0.0 mm
02:40 AM 31.2°F-0.4°C 29.1°F-1.6°C 92% Calm Calm -- 29.90 in1012.5 mb - 0.00 in0.0 mm 0.00 in0.0 mm
02:50 AM 31.1°F-0.5°C 29.0°F-1.7°C 92% Calm Calm -- 29.89 in1012.2 mb - 0.00 in0.0 mm 0.00 in0.0 mm
03:00 AM 30.9°F-0.6°C 28.9°F-1.7°C 92% Calm Calm -- 29.89 in1012.2 mb - 0.00 in0.0 mm 0.00 in0.0 mm
03:10 AM 30.8°F-0.7°C 29.0°F-1.7°C 93% Calm Calm -- 29.89 in1012.2 mb - 0.00 in0.0 mm 0.00 in0.0 mm
03:20 AM 30.8°F-0.7°C 29.0°F-1.7°C 93% Calm Calm -- 29.88 in1011.9 mb - 0.00 in0.0 mm 0.00 in0.0 mm
03:30 AM 30.7°F-0.7°C 28.9°F-1.7°C 93% Calm Calm -- 29.88 in1011.9 mb - 0.00 in0.0 mm 0.00 in0.0 mm
03:40 AM 30.6°F-0.8°C 28.8°F-1.8°C 93% Calm Calm -- 29.87 in1011.5 mb - 0.00 in0.0 mm 0.00 in0.0 mm
03:50 AM 30.4°F-0.9°C 28.6°F-1.9°C 93% Calm Calm -- 29.87 in1011.5 mb - 0.00 in0.0 mm 0.00 in0.0 mm
04:00 AM 30.3°F-0.9°C 28.5°F-1.9°C 93% Calm Calm -- 29.87 in1011.5 mb - 0.00 in0.0 mm 0.00 in0.0 mm
04:10 AM 30.2°F-1.0°C 28.4°F-2.0°C 93% Calm Calm -- 29.86 in1011.2 mb - 0.00 in0.0 mm 0.00 in0.0 mm
04:20 AM 29.9°F-1.2°C 28.1°F-2.2°C 93% Calm Calm -- 29.86 in1011.2 mb - 0.00 in0.0 mm 0.00 in0.0 mm
04:30 AM 29.7°F-1.3°C 27.9°F-2.3°C 93% Calm Calm -- 29.85 in1010.8 mb - 0.00 in0.0 mm 0.00 in0.0 mm
04:40 AM 29.7°F-1.3°C 27.9°F-2.3°C 93% Calm Calm -- 29.85 in1010.8 mb - 0.00 in0.0 mm 0.00 in0.0 mm
04:50 AM 29.7°F-1.3°C 27.9°F-2.3°C 93% Calm Calm -- 29.84 in1010.5 mb - 0.00 in0.0 mm 0.00 in0.0 mm
05:00 AM 29.7°F-1.3°C 27.9°F-2.3°C 93% Calm Calm -- 29.84 in1010.5 mb - 0.00 in0.0 mm 0.00 in0.0 mm
05:10 AM 29.8°F-1.2°C 28.3°F-2.1°C 94% Calm Calm 1.2 mph1.9 kmh 29.83 in1010.2 mb - 0.00 in0.0 mm 0.00 in0.0 mm
05:20 AM 29.8°F-1.2°C 28.3°F-2.1°C 94% Calm Calm -- 29.83 in1010.2 mb - 0.00 in0.0 mm 0.00 in0.0 mm
05:30 AM 29.7°F-1.3°C 28.2°F-2.1°C 94% Calm Calm -- 29.82 in1009.8 mb - 0.00 in0.0 mm 0.00 in0.0 mm
05:40 AM 29.5°F-1.4°C 28.0°F-2.2°C 94% Calm Calm -- 29.81 in1009.5 mb - 0.00 in0.0 mm 0.00 in0.0 mm
05:50 AM 29.4°F-1.4°C 27.9°F-2.3°C 94% Calm Calm 1.2 mph1.9 kmh 29.81 in1009.5 mb - 0.00 in0.0 mm 0.00 in0.0 mm
06:00 AM 29.7°F-1.3°C 28.2°F-2.1°C 94% Calm Calm -- 29.81 in1009.5 mb - 0.00 in0.0 mm 0.00 in0.0 mm
06:10 AM 29.9°F-1.2°C 28.4°F-2.0°C 94% Calm Calm -- 29.80 in1009.1 mb - 0.00 in0.0 mm 0.00 in0.0 mm
06:20 AM 29.9°F-1.2°C 28.4°F-2.0°C 94% Calm Calm -- 29.80 in1009.1 mb - 0.00 in0.0 mm 0.00 in0.0 mm
06:30 AM 30.2°F-1.0°C 28.9°F-1.7°C 95% Calm Calm -- 29.79 in1008.8 mb - 0.00 in0.0 mm 0.00 in0.0 mm
06:40 AM 30.4°F-0.9°C 28.9°F-1.7°C 94% Calm Calm -- 29.79 in1008.8 mb - 0.00 in0.0 mm 0.00 in0.0 mm
06:50 AM 30.5°F-0.8°C 29.0°F-1.7°C 94% Calm Calm -- 29.78 in1008.5 mb - 0.00 in0.0 mm 0.00 in0.0 mm
07:00 AM 30.6°F-0.8°C 29.1°F-1.6°C 94% Calm Calm -- 29.77 in1008.1 mb - 0.00 in0.0 mm 0.00 in0.0 mm
07:10 AM 30.8°F-0.7°C 29.5°F-1.4°C 95% Calm Calm -- 29.77 in1008.1 mb - 0.00 in0.0 mm 0.00 in0.0 mm
07:20 AM 31.4°F-0.3°C 30.1°F-1.1°C 95% Calm Calm -- 29.77 in1008.1 mb - 0.00 in0.0 mm 0.00 in0.0 mm
07:30 AM 31.7°F-0.2°C 30.5°F-0.8°C 95% Calm Calm -- 29.76 in1007.8 mb - 0.00 in0.0 mm 0.00 in0.0 mm
07:40 AM 32.3°F0.2°C 31.0°F-0.6°C 95% Calm Calm 1.2 mph1.9 kmh 29.76 in1007.8 mb - 0.00 in0.0 mm 0.00 in0.0 mm
07:50 AM 33.6°F0.9°C 32.6°F0.3°C 96% Calm Calm 2.3 mph3.7 kmh 29.75 in1007.5 mb - 0.00 in0.0 mm 0.00 in0.0 mm
08:00 AM 35.1°F1.7°C 34.1°F1.2°C 96% 2.3 mph ESE3.7 kmh ESE 6.9 mph11.1 kmh 29.74 in1007.1 mb - 0.00 in0.0 mm 0.00 in0.0 mm
08:10 AM 35.9°F2.2°C 34.9°F1.6°C 96% 1.2 mph ESE1.9 kmh ESE 3.5 mph5.6 kmh 29.73 in1006.8 mb - 0.00 in0.0 mm 0.00 in0.0 mm
08:20 AM 36.7°F2.6°C 35.4°F1.9°C 95% 2.3 mph SSE3.7 kmh SSE 3.5 mph5.6 kmh 29.72 in1006.4 mb - 0.00 in0.0 mm 0.00 in0.0 mm
08:30 AM 37.3°F2.9°C 36.0°F2.2°C 95% 2.3 mph SE3.7 kmh SE 3.5 mph5.6 kmh 29.72 in1006.4 mb - 0.00 in0.0 mm 0.00 in0.0 mm
08:40 AM 37.8°F3.2°C 36.2°F2.3°C 94% 2.3 mph ESE3.7 kmh ESE 6.9 mph11.1 kmh 29.71 in1006.1 mb - 0.00 in0.0 mm 0.00 in0.0 mm
08:50 AM 38.2°F3.4°C 36.4°F2.4°C 93% 2.3 mph SE3.7 kmh SE 5.8 mph9.3 kmh 29.71 in1006.1 mb - 0.00 in0.0 mm 0.00 in0.0 mm
09:00 AM 38.6°F3.7°C 36.7°F2.6°C 93% 1.2 mph ESE1.9 kmh ESE 3.5 mph5.6 kmh 29.70 in1005.8 mb - 0.00 in0.0 mm 0.00 in0.0 mm
09:10 AM 38.9°F3.8°C 36.8°F2.7°C 92% 2.3 mph ESE3.7 kmh ESE 4.6 mph7.4 kmh 29.70 in1005.8 mb - 0.00 in0.0 mm 0.00 in0.0 mm
09:20 AM 39.3°F4.1°C 37.1°F2.8°C 92% 3.5 mph E5.6 kmh E 4.6 mph7.4 kmh 29.69 in1005.4 mb - 0.00 in0.0 mm 0.00 in0.0 mm
09:30 AM 39.4°F4.1°C 37.3°F2.9°C 92% 1.2 mph ESE1.9 kmh ESE 3.5 mph5.6 kmh 29.68 in1005.1 mb - 0.00 in0.0 mm 0.00 in0.0 mm
09:40 AM 39.5°F4.2°C 37.4°F3.0°C 92% 2.3 mph ESE3.7 kmh ESE 4.6 mph7.4 kmh 29.67 in1004.7 mb - 0.02 in0.5 mm 0.02 in0.5 mm
09:50 AM 39.5°F4.2°C 37.7°F3.2°C 93% 1.2 mph ESE1.9 kmh ESE 4.6 mph7.4 kmh 29.67 in1004.7 mb - 0.01 in0.3 mm 0.02 in0.5 mm
10:00 AM 39.6°F4.2°C 37.7°F3.2°C 93% 1.2 mph ESE1.9 kmh ESE 3.5 mph5.6 kmh 29.66 in1004.4 mb - 0.01 in0.3 mm 0.03 in0.8 mm
10:10 AM 39.7°F4.3°C 38.1°F3.4°C 94% 2.3 mph SE3.7 kmh SE 3.5 mph5.6 kmh 29.65 in1004.1 mb - 0.02 in0.5 mm 0.05 in1.3 mm
10:20 AM 40.0°F4.4°C 38.4°F3.6°C 94% 2.3 mph ESE3.7 kmh ESE 4.6 mph7.4 kmh 29.64 in1003.7 mb - 0.00 in0.0 mm 0.05 in1.3 mm
10:30 AM 40.5°F4.7°C 39.2°F4.0°C 95% 1.2 mph ESE1.9 kmh ESE 5.8 mph9.3 kmh 29.64 in1003.7 mb - 0.00 in0.0 mm 0.05 in1.3 mm
10:40 AM 40.9°F4.9°C 39.6°F4.2°C 95% 2.3 mph E3.7 kmh E 5.8 mph9.3 kmh 29.63 in1003.4 mb - 0.01 in0.3 mm 0.06 in1.5 mm
10:50 AM 41.1°F5.1°C 39.8°F4.3°C 95% 1.2 mph ESE1.9 kmh ESE 4.6 mph7.4 kmh 29.62 in1003.0 mb - 0.00 in0.0 mm 0.06 in1.5 mm
11:00 AM 41.4°F5.2°C 40.1°F4.5°C 95% Calm Calm -- 29.62 in1003.0 mb - 0.02 in0.5 mm 0.07 in1.8 mm
11:10 AM 41.9°F5.5°C 40.9°F4.9°C 96% 1.2 mph SE1.9 kmh SE 4.6 mph7.4 kmh 29.61 in1002.7 mb - 0.02 in0.5 mm 0.09 in2.3 mm
11:20 AM 42.4°F5.8°C 41.3°F5.2°C 96% Calm Calm 3.5 mph5.6 kmh 29.61 in1002.7 mb - 0.02 in0.5 mm 0.10 in2.5 mm
11:30 AM 42.7°F5.9°C 41.6°F5.3°C 96% 1.2 mph SE1.9 kmh SE 3.5 mph5.6 kmh 29.60 in1002.4 mb - 0.02 in0.5 mm 0.13 in3.3 mm
11:40 AM 42.9°F6.1°C 41.8°F5.4°C 96% Calm Calm -- 29.60 in1002.4 mb - 0.02 in0.5 mm 0.14 in3.6 mm
11:50 AM 43.2°F6.2°C 42.1°F5.6°C 96% Calm Calm -- 29.60 in1002.4 mb - 0.02 in0.5 mm 0.17 in4.3 mm
12:00 PM 43.3°F6.3°C 42.2°F5.7°C 96% Calm Calm -- 29.59 in1002.0 mb - 0.02 in0.5 mm 0.18 in4.6 mm
12:10 PM 43.4°F6.3°C 42.3°F5.7°C 96% Calm Calm -- 29.59 in1002.0 mb - 0.03 in0.8 mm 0.21 in5.3 mm
12:20 PM 43.5°F6.4°C 42.5°F5.8°C 96% Calm Calm -- 29.57 in1001.4 mb - 0.03 in0.8 mm 0.24 in6.1 mm
12:30 PM 43.7°F6.5°C 42.6°F5.9°C 96% Calm Calm -- 29.57 in1001.4 mb - 0.01 in0.3 mm 0.24 in6.1 mm
12:40 PM 43.8°F6.6°C 42.7°F5.9°C 96% Calm Calm -- 29.56 in1001.0 mb - 0.00 in0.0 mm 0.24 in6.1 mm
12:50 PM 43.9°F6.6°C 42.8°F6.0°C 96% Calm Calm -- 29.56 in1001.0 mb - 0.00 in0.0 mm 0.24 in6.1 mm
01:00 PM 44.0°F6.7°C 42.9°F6.1°C 96% Calm Calm -- 29.55 in1000.7 mb - 0.00 in0.0 mm 0.24 in6.1 mm
01:10 PM 44.3°F6.8°C 43.2°F6.2°C 96% Calm Calm -- 29.55 in1000.7 mb - 0.00 in0.0 mm 0.24 in6.1 mm
01:20 PM 44.5°F6.9°C 43.4°F6.3°C 96% Calm Calm -- 29.55 in1000.7 mb - 0.00 in0.0 mm 0.24 in6.1 mm
01:30 PM 44.8°F7.1°C 43.7°F6.5°C 96% Calm Calm -- 29.55 in1000.7 mb - 0.00 in0.0 mm 0.24 in6.1 mm
01:40 PM 45.3°F7.4°C 44.5°F6.9°C 97% Calm Calm -- 29.55 in1000.7 mb - 0.00 in0.0 mm 0.24 in6.1 mm
01:50 PM 45.3°F7.4°C 44.2°F6.8°C 96% Calm Calm -- 29.55 in1000.7 mb - 0.00 in0.0 mm 0.24 in6.1 mm
02:00 PM 45.6°F7.6°C 44.5°F6.9°C 96% Calm Calm -- 29.55 in1000.7 mb - 0.00 in0.0 mm 0.24 in6.1 mm
02:10 PM 45.6°F7.6°C 44.5°F6.9°C 96% Calm Calm -- 29.55 in1000.7 mb - 0.00 in0.0 mm 0.24 in6.1 mm
02:20 PM 45.7°F7.6°C 44.6°F7.0°C 96% 1.2 mph WSW1.9 kmh WSW 1.2 mph1.9 kmh 29.54 in1000.3 mb - 0.00 in0.0 mm 0.24 in6.1 mm
02:30 PM 45.6°F7.6°C 44.5°F6.9°C 96% Calm Calm -- 29.55 in1000.7 mb - 0.00 in0.0 mm 0.24 in6.1 mm
02:40 PM 45.5°F7.5°C 44.2°F6.8°C 95% Calm Calm 3.5 mph5.6 kmh 29.55 in1000.7 mb - 0.00 in0.0 mm 0.24 in6.1 mm
02:50 PM 45.4°F7.4°C 43.8°F6.6°C 94% Calm Calm -- 29.55 in1000.7 mb - 0.00 in0.0 mm 0.24 in6.1 mm
03:00 PM 45.5°F7.5°C 44.2°F6.8°C 95% Calm Calm -- 29.55 in1000.7 mb - 0.00 in0.0 mm 0.24 in6.1 mm
03:10 PM 45.5°F7.5°C 43.9°F6.6°C 94% Calm Calm -- 29.55 in1000.7 mb - 0.00 in0.0 mm 0.24 in6.1 mm
03:20 PM 45.6°F7.6°C 43.9°F6.6°C 94% Calm Calm -- 29.55 in1000.7 mb - 0.00 in0.0 mm 0.24 in6.1 mm
03:30 PM 45.6°F7.6°C 44.0°F6.7°C 94% Calm Calm -- 29.55 in1000.7 mb - 0.00 in0.0 mm 0.24 in6.1 mm
03:40 PM 45.6°F7.6°C 44.0°F6.7°C 94% Calm Calm -- 29.55 in1000.7 mb - 0.00 in0.0 mm 0.24 in6.1 mm
03:50 PM 45.4°F7.4°C 43.8°F6.6°C 94% Calm Calm -- 29.55 in1000.7 mb - 0.00 in0.0 mm 0.24 in6.1 mm
04:00 PM 45.2°F7.3°C 43.6°F6.4°C 94% Calm Calm -- 29.55 in1000.7 mb - 0.00 in0.0 mm 0.24 in6.1 mm
04:10 PM 45.0°F7.2°C 43.4°F6.3°C 94% Calm Calm 3.5 mph5.6 kmh 29.55 in1000.7 mb - 0.00 in0.0 mm 0.24 in6.1 mm
04:20 PM 44.9°F7.2°C 43.3°F6.3°C 94% Calm Calm -- 29.55 in1000.7 mb - 0.00 in0.0 mm 0.24 in6.1 mm
04:30 PM 44.7°F7.1°C 43.1°F6.2°C 94% Calm Calm -- 29.56 in1001.0 mb - 0.00 in0.0 mm 0.24 in6.1 mm
04:40 PM 44.4°F6.9°C 42.8°F6.0°C 94% Calm Calm -- 29.57 in1001.4 mb - 0.00 in0.0 mm 0.24 in6.1 mm
04:50 PM 44.0°F6.7°C 42.4°F5.8°C 94% Calm Calm -- 29.57 in1001.4 mb - 0.00 in0.0 mm 0.24 in6.1 mm
05:00 PM 43.6°F6.4°C 42.0°F5.6°C 94% Calm Calm 1.2 mph1.9 kmh 29.57 in1001.4 mb - 0.00 in0.0 mm 0.24 in6.1 mm
05:10 PM 43.6°F6.4°C 42.0°F5.6°C 94% Calm Calm 2.3 mph3.7 kmh 29.58 in1001.7 mb - 0.00 in0.0 mm 0.24 in6.1 mm
05:20 PM 43.7°F6.5°C 42.4°F5.8°C 95% Calm Calm -- 29.58 in1001.7 mb - 0.00 in0.0 mm 0.24 in6.1 mm
05:30 PM 43.6°F6.4°C 42.3°F5.7°C 95% Calm Calm 1.2 mph1.9 kmh 29.59 in1002.0 mb - 0.00 in0.0 mm 0.24 in6.1 mm
05:40 PM 43.5°F6.4°C 42.2°F5.7°C 95% Calm Calm -- 29.59 in1002.0 mb - 0.00 in0.0 mm 0.24 in6.1 mm
05:50 PM 43.6°F6.4°C 42.3°F5.7°C 95% Calm Calm -- 29.59 in1002.0 mb - 0.00 in0.0 mm 0.24 in6.1 mm
06:00 PM 43.7°F6.5°C 42.4°F5.8°C 95% Calm Calm -- 29.59 in1002.0 mb - 0.00 in0.0 mm 0.24 in6.1 mm
06:10 PM 43.8°F6.6°C 42.5°F5.8°C 95% Calm Calm -- 29.59 in1002.0 mb - 0.00 in0.0 mm 0.24 in6.1 mm
06:20 PM 43.9°F6.6°C 42.6°F5.9°C 95% Calm Calm -- 29.59 in1002.0 mb - 0.00 in0.0 mm 0.24 in6.1 mm
06:30 PM 43.7°F6.5°C 42.4°F5.8°C 95% Calm Calm 1.2 mph1.9 kmh 29.59 in1002.0 mb - 0.00 in0.0 mm 0.24 in6.1 mm
06:40 PM 43.5°F6.4°C 42.1°F5.6°C 95% Calm Calm 1.2 mph1.9 kmh 29.59 in1002.0 mb - 0.00 in0.0 mm 0.24 in6.1 mm
06:50 PM 43.4°F6.3°C 42.1°F5.6°C 95% Calm Calm -- 29.59 in1002.0 mb - 0.00 in0.0 mm 0.24 in6.1 mm
07:00 PM 43.4°F6.3°C 42.1°F5.6°C 95% Calm Calm -- 29.59 in1002.0 mb - 0.00 in0.0 mm 0.24 in6.1 mm
07:10 PM 43.3°F6.3°C 42.0°F5.6°C 95% Calm Calm -- 29.59 in1002.0 mb - 0.00 in0.0 mm 0.24 in6.1 mm
07:20 PM 43.3°F6.3°C 41.9°F5.5°C 95% Calm Calm 2.3 mph3.7 kmh 29.60 in1002.4 mb - 0.00 in0.0 mm 0.24 in6.1 mm
07:30 PM 43.3°F6.3°C 42.0°F5.6°C 95% Calm Calm -- 29.60 in1002.4 mb - 0.00 in0.0 mm 0.24 in6.1 mm
07:40 PM 43.3°F6.3°C 42.0°F5.6°C 95% Calm Calm 2.3 mph3.7 kmh 29.59 in1002.0 mb - 0.00 in0.0 mm 0.24 in6.1 mm
07:50 PM 43.3°F6.3°C 42.0°F5.6°C 95% Calm Calm -- 29.59 in1002.0 mb - 0.00 in0.0 mm 0.24 in6.1 mm
08:10 PM 43.1°F6.2°C 41.8°F5.4°C 95% Calm Calm 3.5 mph5.6 kmh 29.59 in1002.0 mb - 0.00 in0.0 mm 0.24 in6.1 mm
08:20 PM 43.0°F6.1°C 41.7°F5.4°C 95% Calm Calm -- 29.59 in1002.0 mb - 0.00 in0.0 mm 0.24 in6.1 mm
08:30 PM 43.0°F6.1°C 41.7°F5.4°C 95% Calm Calm -- 29.60 in1002.4 mb - 0.00 in0.0 mm 0.24 in6.1 mm
08:40 PM 42.9°F6.1°C 41.6°F5.3°C 95% Calm Calm -- 29.60 in1002.4 mb - 0.00 in0.0 mm 0.24 in6.1 mm
08:50 PM 42.8°F6.0°C 41.5°F5.3°C 95% Calm Calm -- 29.60 in1002.4 mb - 0.01 in0.3 mm 0.25 in6.4 mm
09:00 PM 42.7°F5.9°C 41.4°F5.2°C 95% Calm Calm -- 29.60 in1002.4 mb - 0.00 in0.0 mm 0.25 in6.4 mm
09:10 PM 42.6°F5.9°C 41.3°F5.2°C 95% Calm Calm -- 29.60 in1002.4 mb - 0.00 in0.0 mm 0.25 in6.4 mm
09:20 PM 42.4°F5.8°C 41.1°F5.1°C 95% Calm Calm -- 29.60 in1002.4 mb - 0.00 in0.0 mm 0.25 in6.4 mm
09:30 PM 42.2°F5.7°C 40.9°F4.9°C 95% Calm Calm -- 29.60 in1002.4 mb - 0.00 in0.0 mm 0.25 in6.4 mm
09:40 PM 41.9°F5.5°C 40.6°F4.8°C 95% Calm Calm -- 29.60 in1002.4 mb - 0.00 in0.0 mm 0.25 in6.4 mm
09:50 PM 41.5°F5.3°C 39.9°F4.4°C 94% Calm Calm -- 29.60 in1002.4 mb - 0.00 in0.0 mm 0.25 in6.4 mm
10:00 PM 41.2°F5.1°C 39.6°F4.2°C 94% Calm Calm -- 29.60 in1002.4 mb - 0.00 in0.0 mm 0.25 in6.4 mm
10:10 PM 41.0°F5.0°C 39.7°F4.3°C 95% Calm Calm -- 29.61 in1002.7 mb - 0.00 in0.0 mm 0.25 in6.4 mm
10:20 PM 41.0°F5.0°C 39.7°F4.3°C 95% Calm Calm -- 29.61 in1002.7 mb - 0.00 in0.0 mm 0.25 in6.4 mm
10:30 PM 41.1°F5.1°C 39.8°F4.3°C 95% Calm Calm -- 29.61 in1002.7 mb - 0.00 in0.0 mm 0.25 in6.4 mm
10:40 PM 41.1°F5.1°C 39.8°F4.3°C 95% Calm Calm -- 29.61 in1002.7 mb - 0.01 in0.3 mm 0.26 in6.6 mm
10:50 PM 41.2°F5.1°C 39.9°F4.4°C 95% Calm Calm -- 29.61 in1002.7 mb - 0.00 in0.0 mm 0.26 in6.6 mm
11:00 PM 41.3°F5.2°C 40.2°F4.6°C 96% Calm Calm -- 29.61 in1002.7 mb - 0.00 in0.0 mm 0.26 in6.6 mm
11:10 PM 41.4°F5.2°C 40.3°F4.6°C 96% Calm Calm -- 29.61 in1002.7 mb - 0.00 in0.0 mm 0.26 in6.6 mm
11:20 PM 41.4°F5.2°C 40.3°F4.6°C 96% Calm Calm -- 29.62 in1003.0 mb - 0.00 in0.0 mm 0.26 in6.6 mm
11:30 PM 41.2°F5.1°C 39.9°F4.4°C 95% Calm Calm -- 29.62 in1003.0 mb - 0.00 in0.0 mm 0.26 in6.6 mm
11:40 PM 41.1°F5.1°C 39.8°F4.3°C 95% Calm Calm -- 29.63 in1003.4 mb - 0.00 in0.0 mm 0.26 in6.6 mm
11:50 PM 41.1°F5.1°C 39.8°F4.3°C 95% Calm Calm -- 29.63 in1003.4 mb - 0.00 in0.0 mm 0.26 in6.6 mm